sensor_id;sensor_type;location;lat;lon;timestamp;P1;durP1;ratioP1;P2;durP2;ratioP2
71655;SDS011;59497;48.798;8.816;2023-02-15T00:01:07;28.37;;;14.37;;
71655;SDS011;59497;48.798;8.816;2023-02-15T00:03:32;31.95;;;15.68;;
71655;SDS011;59497;48.798;8.816;2023-02-15T00:05:57;32.53;;;16.10;;
71655;SDS011;59497;48.798;8.816;2023-02-15T00:08:23;35.13;;;16.10;;
71655;SDS011;59497;48.798;8.816;2023-02-15T00:10:48;34.83;;;15.47;;
71655;SDS011;59497;48.798;8.816;2023-02-15T00:13:13;35.80;;;15.33;;
71655;SDS011;59497;48.798;8.816;2023-02-15T00:15:38;29.40;;;14.05;;
71655;SDS011;59497;48.798;8.816;2023-02-15T00:18:03;35.23;;;15.43;;
71655;SDS011;59497;48.798;8.816;2023-02-15T00:20:28;35.17;;;14.57;;
71655;SDS011;59497;48.798;8.816;2023-02-15T00:22:54;32.70;;;15.87;;
71655;SDS011;59497;48.798;8.816;2023-02-15T00:25:19;34.67;;;14.37;;
71655;SDS011;59497;48.798;8.816;2023-02-15T00:27:44;30.40;;;14.20;;
71655;SDS011;59497;48.798;8.816;2023-02-15T00:30:10;31.00;;;14.13;;
71655;SDS011;59497;48.798;8.816;2023-02-15T00:32:35;37.43;;;16.47;;
71655;SDS011;59497;48.798;8.816;2023-02-15T00:35:00;31.83;;;14.70;;
71655;SDS011;59497;48.798;8.816;2023-02-15T00:37:25;35.75;;;15.02;;
71655;SDS011;59497;48.798;8.816;2023-02-15T00:39:50;33.47;;;14.87;;
71655;SDS011;59497;48.798;8.816;2023-02-15T00:42:15;31.88;;;14.88;;
71655;SDS011;59497;48.798;8.816;2023-02-15T00:44:41;36.83;;;16.07;;
71655;SDS011;59497;48.798;8.816;2023-02-15T00:47:06;32.00;;;14.60;;
71655;SDS011;59497;48.798;8.816;2023-02-15T00:49:31;31.60;;;14.07;;
71655;SDS011;59497;48.798;8.816;2023-02-15T00:51:56;31.33;;;13.95;;
71655;SDS011;59497;48.798;8.816;2023-02-15T00:54:21;28.95;;;13.40;;
71655;SDS011;59497;48.798;8.816;2023-02-15T00:56:46;30.58;;;13.32;;
71655;SDS011;59497;48.798;8.816;2023-02-15T00:59:11;26.85;;;12.55;;
71655;SDS011;59497;48.798;8.816;2023-02-15T01:01:37;29.30;;;12.85;;
71655;SDS011;59497;48.798;8.816;2023-02-15T01:04:02;29.05;;;13.20;;
71655;SDS011;59497;48.798;8.816;2023-02-15T01:06:27;31.80;;;13.85;;
71655;SDS011;59497;48.798;8.816;2023-02-15T01:08:52;31.03;;;13.60;;
71655;SDS011;59497;48.798;8.816;2023-02-15T01:11:19;29.63;;;14.50;;
71655;SDS011;59497;48.798;8.816;2023-02-15T01:13:47;35.50;;;15.23;;
71655;SDS011;59497;48.798;8.816;2023-02-15T01:16:12;31.33;;;14.30;;
71655;SDS011;59497;48.798;8.816;2023-02-15T01:18:37;32.20;;;14.27;;
71655;SDS011;59497;48.798;8.816;2023-02-15T01:21:12;32.53;;;13.63;;
71655;SDS011;59497;48.798;8.816;2023-02-15T01:23:38;29.83;;;12.85;;
71655;SDS011;59497;48.798;8.816;2023-02-15T01:26:03;26.73;;;12.80;;
71655;SDS011;59497;48.798;8.816;2023-02-15T01:28:29;28.23;;;13.40;;
71655;SDS011;59497;48.798;8.816;2023-02-15T01:30:54;29.50;;;13.67;;
71655;SDS011;59497;48.798;8.816;2023-02-15T01:33:19;29.38;;;13.63;;
71655;SDS011;59497;48.798;8.816;2023-02-15T01:35:45;29.85;;;12.43;;
71655;SDS011;59497;48.798;8.816;2023-02-15T01:38:11;30.87;;;12.77;;
71655;SDS011;59497;48.798;8.816;2023-02-15T01:40:36;30.00;;;13.60;;
71655;SDS011;59497;48.798;8.816;2023-02-15T01:43:01;28.43;;;12.70;;
71655;SDS011;59497;48.798;8.816;2023-02-15T01:45:28;29.33;;;12.17;;
71655;SDS011;59497;48.798;8.816;2023-02-15T01:47:56;27.33;;;13.00;;
71655;SDS011;59497;48.798;8.816;2023-02-15T01:52:58;31.45;;;13.57;;
71655;SDS011;59497;48.798;8.816;2023-02-15T01:55:27;26.27;;;12.10;;
71655;SDS011;59497;48.798;8.816;2023-02-15T01:57:53;28.67;;;12.68;;
71655;SDS011;59497;48.798;8.816;2023-02-15T02:00:18;24.23;;;10.90;;
71655;SDS011;59497;48.798;8.816;2023-02-15T02:02:44;26.60;;;10.73;;
71655;SDS011;59497;48.798;8.816;2023-02-15T02:05:11;21.23;;;10.02;;
71655;SDS011;59497;48.798;8.816;2023-02-15T02:07:41;21.98;;;10.05;;
71655;SDS011;59497;48.798;8.816;2023-02-15T02:10:08;22.00;;;9.87;;
71655;SDS011;59497;48.798;8.816;2023-02-15T02:12:34;21.58;;;10.02;;
71655;SDS011;59497;48.798;8.816;2023-02-15T02:14:59;21.48;;;9.88;;
71655;SDS011;59497;48.798;8.816;2023-02-15T02:17:35;20.60;;;8.90;;
71655;SDS011;59497;48.798;8.816;2023-02-15T02:20:25;21.80;;;9.98;;
71655;SDS011;59497;48.798;8.816;2023-02-15T02:25:41;18.95;;;8.30;;
71655;SDS011;59497;48.798;8.816;2023-02-15T02:38:35;17.00;;;8.88;;
71655;SDS011;59497;48.798;8.816;2023-02-15T02:46:29;17.40;;;7.87;;
71655;SDS011;59497;48.798;8.816;2023-02-15T02:48:55;15.48;;;8.60;;
71655;SDS011;59497;48.798;8.816;2023-02-15T02:51:20;14.73;;;8.33;;
71655;SDS011;59497;48.798;8.816;2023-02-15T02:53:51;16.10;;;7.93;;
71655;SDS011;59497;48.798;8.816;2023-02-15T02:58:46;18.38;;;7.50;;
71655;SDS011;59497;48.798;8.816;2023-02-15T03:01:15;18.08;;;7.38;;
71655;SDS011;59497;48.798;8.816;2023-02-15T03:03:42;19.57;;;8.67;;
71655;SDS011;59497;48.798;8.816;2023-02-15T03:06:10;16.25;;;7.63;;
71655;SDS011;59497;48.798;8.816;2023-02-15T03:08:44;18.80;;;8.70;;
71655;SDS011;59497;48.798;8.816;2023-02-15T03:11:10;19.33;;;7.60;;
71655;SDS011;59497;48.798;8.816;2023-02-15T03:13:36;19.02;;;8.40;;
71655;SDS011;59497;48.798;8.816;2023-02-15T03:16:01;18.30;;;8.70;;
71655;SDS011;59497;48.798;8.816;2023-02-15T03:18:48;21.98;;;9.50;;
71655;SDS011;59497;48.798;8.816;2023-02-15T03:21:17;20.67;;;9.35;;
71655;SDS011;59497;48.798;8.816;2023-02-15T03:23:48;23.43;;;10.20;;
71655;SDS011;59497;48.798;8.816;2023-02-15T03:26:14;21.50;;;9.93;;
71655;SDS011;59497;48.798;8.816;2023-02-15T03:28:42;23.17;;;10.77;;
71655;SDS011;59497;48.798;8.816;2023-02-15T03:31:10;24.65;;;11.05;;
71655;SDS011;59497;48.798;8.816;2023-02-15T03:33:38;27.42;;;11.88;;
71655;SDS011;59497;48.798;8.816;2023-02-15T03:38:34;21.43;;;9.10;;
71655;SDS011;59497;48.798;8.816;2023-02-15T03:41:01;20.60;;;9.33;;
71655;SDS011;59497;48.798;8.816;2023-02-15T03:51:29;17.08;;;8.55;;
71655;SDS011;59497;48.798;8.816;2023-02-15T03:53:58;18.17;;;7.80;;
71655;SDS011;59497;48.798;8.816;2023-02-15T03:56:24;19.83;;;8.20;;
71655;SDS011;59497;48.798;8.816;2023-02-15T03:58:49;16.87;;;7.83;;
71655;SDS011;59497;48.798;8.816;2023-02-15T04:06:53;18.00;;;8.43;;
71655;SDS011;59497;48.798;8.816;2023-02-15T04:09:18;24.17;;;9.70;;
71655;SDS011;59497;48.798;8.816;2023-02-15T04:12:02;20.55;;;9.50;;
71655;SDS011;59497;48.798;8.816;2023-02-15T04:14:27;20.63;;;10.10;;
71655;SDS011;59497;48.798;8.816;2023-02-15T04:17:11;23.88;;;10.77;;
71655;SDS011;59497;48.798;8.816;2023-02-15T04:19:36;23.10;;;11.17;;
71655;SDS011;59497;48.798;8.816;2023-02-15T04:22:20;26.50;;;11.18;;
71655;SDS011;59497;48.798;8.816;2023-02-15T04:25:04;23.23;;;10.63;;
71655;SDS011;59497;48.798;8.816;2023-02-15T04:27:36;22.92;;;9.70;;
71655;SDS011;59497;48.798;8.816;2023-02-15T04:30:01;21.73;;;9.67;;
71655;SDS011;59497;48.798;8.816;2023-02-15T04:32:27;19.47;;;8.70;;
71655;SDS011;59497;48.798;8.816;2023-02-15T04:34:52;19.27;;;9.60;;
71655;SDS011;59497;48.798;8.816;2023-02-15T04:37:17;19.17;;;9.47;;
71655;SDS011;59497;48.798;8.816;2023-02-15T04:39:42;22.83;;;9.00;;
71655;SDS011;59497;48.798;8.816;2023-02-15T04:42:08;17.80;;;9.25;;
71655;SDS011;59497;48.798;8.816;2023-02-15T04:44:33;20.95;;;10.15;;
71655;SDS011;59497;48.798;8.816;2023-02-15T04:46:58;23.40;;;10.10;;
71655;SDS011;59497;48.798;8.816;2023-02-15T04:49:23;21.63;;;10.83;;
71655;SDS011;59497;48.798;8.816;2023-02-15T04:51:48;27.02;;;10.88;;
71655;SDS011;59497;48.798;8.816;2023-02-15T04:54:13;22.33;;;9.90;;
71655;SDS011;59497;48.798;8.816;2023-02-15T04:56:39;23.77;;;9.23;;
71655;SDS011;59497;48.798;8.816;2023-02-15T04:59:04;19.80;;;10.00;;
71655;SDS011;59497;48.798;8.816;2023-02-15T05:01:29;22.57;;;8.60;;
71655;SDS011;59497;48.798;8.816;2023-02-15T05:03:54;15.30;;;7.33;;
71655;SDS011;59497;48.798;8.816;2023-02-15T05:06:19;15.77;;;7.30;;
71655;SDS011;59497;48.798;8.816;2023-02-15T05:08:45;15.20;;;7.23;;
71655;SDS011;59497;48.798;8.816;2023-02-15T05:11:10;16.48;;;8.38;;
71655;SDS011;59497;48.798;8.816;2023-02-15T05:13:35;18.17;;;7.97;;
71655;SDS011;59497;48.798;8.816;2023-02-15T05:16:00;15.60;;;7.65;;
71655;SDS011;59497;48.798;8.816;2023-02-15T05:18:25;15.07;;;7.23;;
71655;SDS011;59497;48.798;8.816;2023-02-15T05:20:50;14.77;;;6.57;;
71655;SDS011;59497;48.798;8.816;2023-02-15T05:23:16;23.90;;;9.93;;
71655;SDS011;59497;48.798;8.816;2023-02-15T05:25:41;28.43;;;11.43;;
71655;SDS011;59497;48.798;8.816;2023-02-15T05:28:29;28.43;;;12.87;;
71655;SDS011;59497;48.798;8.816;2023-02-15T05:33:22;38.85;;;15.93;;
71655;SDS011;59497;48.798;8.816;2023-02-15T05:35:47;36.47;;;16.10;;
71655;SDS011;59497;48.798;8.816;2023-02-15T05:38:12;30.13;;;12.70;;
71655;SDS011;59497;48.798;8.816;2023-02-15T05:40:37;24.77;;;9.73;;
71655;SDS011;59497;48.798;8.816;2023-02-15T05:43:03;24.47;;;10.70;;
71655;SDS011;59497;48.798;8.816;2023-02-15T05:45:28;16.83;;;8.00;;
71655;SDS011;59497;48.798;8.816;2023-02-15T05:47:53;15.87;;;7.63;;
71655;SDS011;59497;48.798;8.816;2023-02-15T05:50:18;16.20;;;7.70;;
71655;SDS011;59497;48.798;8.816;2023-02-15T05:52:43;15.20;;;6.97;;
71655;SDS011;59497;48.798;8.816;2023-02-15T05:55:08;17.47;;;8.87;;
71655;SDS011;59497;48.798;8.816;2023-02-15T05:57:34;19.50;;;8.67;;
71655;SDS011;59497;48.798;8.816;2023-02-15T05:59:59;17.10;;;7.77;;
71655;SDS011;59497;48.798;8.816;2023-02-15T06:02:24;19.97;;;9.10;;
71655;SDS011;59497;48.798;8.816;2023-02-15T06:04:50;20.30;;;8.80;;
71655;SDS011;59497;48.798;8.816;2023-02-15T06:07:15;18.33;;;8.90;;
71655;SDS011;59497;48.798;8.816;2023-02-15T06:09:40;22.42;;;9.57;;
71655;SDS011;59497;48.798;8.816;2023-02-15T06:12:05;19.17;;;8.57;;
71655;SDS011;59497;48.798;8.816;2023-02-15T06:14:30;22.87;;;10.47;;
71655;SDS011;59497;48.798;8.816;2023-02-15T06:16:55;21.17;;;10.17;;
71655;SDS011;59497;48.798;8.816;2023-02-15T06:19:21;24.38;;;9.57;;
71655;SDS011;59497;48.798;8.816;2023-02-15T06:21:47;19.30;;;9.48;;
71655;SDS011;59497;48.798;8.816;2023-02-15T06:24:12;21.20;;;10.57;;
71655;SDS011;59497;48.798;8.816;2023-02-15T06:26:37;21.40;;;10.52;;
71655;SDS011;59497;48.798;8.816;2023-02-15T06:29:03;19.83;;;9.63;;
71655;SDS011;59497;48.798;8.816;2023-02-15T06:31:28;22.17;;;10.47;;
71655;SDS011;59497;48.798;8.816;2023-02-15T06:33:53;20.00;;;9.77;;
71655;SDS011;59497;48.798;8.816;2023-02-15T06:36:25;21.13;;;10.23;;
71655;SDS011;59497;48.798;8.816;2023-02-15T06:38:50;25.03;;;11.43;;
71655;SDS011;59497;48.798;8.816;2023-02-15T06:41:15;26.02;;;11.88;;
71655;SDS011;59497;48.798;8.816;2023-02-15T06:43:41;22.73;;;9.93;;
71655;SDS011;59497;48.798;8.816;2023-02-15T06:46:06;18.08;;;8.73;;
71655;SDS011;59497;48.798;8.816;2023-02-15T06:48:31;14.37;;;6.80;;
71655;SDS011;59497;48.798;8.816;2023-02-15T06:50:56;16.83;;;7.27;;
71655;SDS011;59497;48.798;8.816;2023-02-15T06:53:21;18.90;;;7.90;;
71655;SDS011;59497;48.798;8.816;2023-02-15T06:55:46;17.30;;;8.23;;
71655;SDS011;59497;48.798;8.816;2023-02-15T06:58:12;20.70;;;9.10;;
71655;SDS011;59497;48.798;8.816;2023-02-15T07:00:37;23.10;;;11.00;;
71655;SDS011;59497;48.798;8.816;2023-02-15T07:03:02;23.70;;;11.67;;
71655;SDS011;59497;48.798;8.816;2023-02-15T07:05:27;19.67;;;9.50;;
71655;SDS011;59497;48.798;8.816;2023-02-15T07:07:56;22.90;;;10.77;;
71655;SDS011;59497;48.798;8.816;2023-02-15T07:10:21;22.75;;;10.45;;
71655;SDS011;59497;48.798;8.816;2023-02-15T07:12:47;21.10;;;9.80;;
71655;SDS011;59497;48.798;8.816;2023-02-15T07:15:16;21.60;;;9.93;;
71655;SDS011;59497;48.798;8.816;2023-02-15T07:17:41;23.52;;;10.02;;
71655;SDS011;59497;48.798;8.816;2023-02-15T07:20:14;21.23;;;9.53;;
71655;SDS011;59497;48.798;8.816;2023-02-15T07:22:39;21.50;;;10.95;;
71655;SDS011;59497;48.798;8.816;2023-02-15T07:25:05;23.43;;;10.83;;
71655;SDS011;59497;48.798;8.816;2023-02-15T07:27:31;25.02;;;11.30;;
71655;SDS011;59497;48.798;8.816;2023-02-15T07:29:56;26.07;;;11.17;;
71655;SDS011;59497;48.798;8.816;2023-02-15T07:32:21;23.63;;;11.47;;
71655;SDS011;59497;48.798;8.816;2023-02-15T07:34:46;22.23;;;11.40;;
71655;SDS011;59497;48.798;8.816;2023-02-15T07:37:11;25.10;;;11.55;;
71655;SDS011;59497;48.798;8.816;2023-02-15T07:39:37;20.20;;;10.30;;
71655;SDS011;59497;48.798;8.816;2023-02-15T07:42:02;25.93;;;11.73;;
71655;SDS011;59497;48.798;8.816;2023-02-15T07:44:27;24.30;;;11.40;;
71655;SDS011;59497;48.798;8.816;2023-02-15T07:46:52;25.25;;;11.63;;
71655;SDS011;59497;48.798;8.816;2023-02-15T07:49:17;25.02;;;11.73;;
71655;SDS011;59497;48.798;8.816;2023-02-15T07:51:43;23.02;;;12.07;;
71655;SDS011;59497;48.798;8.816;2023-02-15T07:54:08;24.77;;;12.90;;
71655;SDS011;59497;48.798;8.816;2023-02-15T07:56:33;30.05;;;12.70;;
71655;SDS011;59497;48.798;8.816;2023-02-15T07:58:58;24.63;;;12.17;;
71655;SDS011;59497;48.798;8.816;2023-02-15T08:01:29;26.35;;;12.63;;
71655;SDS011;59497;48.798;8.816;2023-02-15T08:03:55;25.67;;;12.10;;
71655;SDS011;59497;48.798;8.816;2023-02-15T08:06:21;25.73;;;12.63;;
71655;SDS011;59497;48.798;8.816;2023-02-15T08:08:46;28.33;;;11.70;;
71655;SDS011;59497;48.798;8.816;2023-02-15T08:13:59;23.55;;;11.98;;
71655;SDS011;59497;48.798;8.816;2023-02-15T08:18:56;31.42;;;14.23;;
71655;SDS011;59497;48.798;8.816;2023-02-15T08:21:22;30.53;;;13.90;;
71655;SDS011;59497;48.798;8.816;2023-02-15T08:23:48;25.38;;;12.77;;
71655;SDS011;59497;48.798;8.816;2023-02-15T08:26:13;24.73;;;12.73;;
71655;SDS011;59497;48.798;8.816;2023-02-15T08:28:39;27.57;;;13.50;;
71655;SDS011;59497;48.798;8.816;2023-02-15T08:31:08;24.17;;;13.00;;
71655;SDS011;59497;48.798;8.816;2023-02-15T08:33:34;24.88;;;12.75;;
71655;SDS011;59497;48.798;8.816;2023-02-15T08:36:03;29.98;;;13.77;;
71655;SDS011;59497;48.798;8.816;2023-02-15T08:38:28;29.40;;;13.52;;
71655;SDS011;59497;48.798;8.816;2023-02-15T08:40:53;32.67;;;13.03;;
71655;SDS011;59497;48.798;8.816;2023-02-15T08:43:19;27.00;;;13.23;;
71655;SDS011;59497;48.798;8.816;2023-02-15T08:45:44;31.23;;;14.10;;
71655;SDS011;59497;48.798;8.816;2023-02-15T08:48:09;29.57;;;13.57;;
71655;SDS011;59497;48.798;8.816;2023-02-15T08:50:34;30.15;;;14.15;;
71655;SDS011;59497;48.798;8.816;2023-02-15T08:52:59;37.70;;;15.73;;
71655;SDS011;59497;48.798;8.816;2023-02-15T08:55:24;30.30;;;13.30;;
71655;SDS011;59497;48.798;8.816;2023-02-15T08:57:50;23.60;;;12.60;;
71655;SDS011;59497;48.798;8.816;2023-02-15T09:00:15;22.20;;;11.77;;
71655;SDS011;59497;48.798;8.816;2023-02-15T09:02:41;24.10;;;11.97;;
71655;SDS011;59497;48.798;8.816;2023-02-15T09:05:06;23.17;;;12.30;;
71655;SDS011;59497;48.798;8.816;2023-02-15T09:07:31;23.20;;;11.53;;
71655;SDS011;59497;48.798;8.816;2023-02-15T09:09:56;21.80;;;12.23;;
71655;SDS011;59497;48.798;8.816;2023-02-15T09:12:21;23.20;;;11.65;;
71655;SDS011;59497;48.798;8.816;2023-02-15T09:14:46;20.03;;;10.73;;
71655;SDS011;59497;48.798;8.816;2023-02-15T09:17:12;19.50;;;10.68;;
71655;SDS011;59497;48.798;8.816;2023-02-15T09:19:37;21.50;;;11.13;;
71655;SDS011;59497;48.798;8.816;2023-02-15T09:22:02;23.80;;;11.33;;
71655;SDS011;59497;48.798;8.816;2023-02-15T09:24:27;20.83;;;10.27;;
71655;SDS011;59497;48.798;8.816;2023-02-15T09:26:56;22.73;;;10.27;;
71655;SDS011;59497;48.798;8.816;2023-02-15T09:29:21;24.37;;;11.10;;
71655;SDS011;59497;48.798;8.816;2023-02-15T09:31:48;22.50;;;10.65;;
71655;SDS011;59497;48.798;8.816;2023-02-15T09:34:15;22.13;;;10.40;;
71655;SDS011;59497;48.798;8.816;2023-02-15T09:36:43;20.95;;;10.10;;
71655;SDS011;59497;48.798;8.816;2023-02-15T09:54:57;20.67;;;10.80;;
71655;SDS011;59497;48.798;8.816;2023-02-15T09:57:27;21.00;;;10.88;;
71655;SDS011;59497;48.798;8.816;2023-02-15T10:00:40;20.63;;;10.03;;
71655;SDS011;59497;48.798;8.816;2023-02-15T10:02:44;19.88;;;9.48;;
71655;SDS011;59497;48.798;8.816;2023-02-15T10:05:16;16.02;;;9.07;;
71655;SDS011;59497;48.798;8.816;2023-02-15T10:20:37;14.48;;;7.80;;
71655;SDS011;59497;48.798;8.816;2023-02-15T10:25:43;13.60;;;8.02;;
71655;SDS011;59497;48.798;8.816;2023-02-15T10:28:19;17.33;;;8.23;;
71655;SDS011;59497;48.798;8.816;2023-02-15T10:30:49;15.93;;;9.50;;
71655;SDS011;59497;48.798;8.816;2023-02-15T10:36:05;17.40;;;9.25;;
71655;SDS011;59497;48.798;8.816;2023-02-15T10:38:35;15.55;;;8.07;;
71655;SDS011;59497;48.798;8.816;2023-02-15T10:41:05;13.88;;;7.88;;
71655;SDS011;59497;48.798;8.816;2023-02-15T10:54:08;16.15;;;9.60;;
71655;SDS011;59497;48.798;8.816;2023-02-15T11:01:54;16.33;;;9.18;;
71655;SDS011;59497;48.798;8.816;2023-02-15T11:07:08;13.98;;;7.97;;
71655;SDS011;59497;48.798;8.816;2023-02-15T11:09:37;13.03;;;7.40;;
71655;SDS011;59497;48.798;8.816;2023-02-15T11:12:04;15.85;;;8.25;;
71655;SDS011;59497;48.798;8.816;2023-02-15T11:16:59;14.15;;;7.82;;
71655;SDS011;59497;48.798;8.816;2023-02-15T11:19:33;12.85;;;7.20;;
71655;SDS011;59497;48.798;8.816;2023-02-15T11:22:01;10.27;;;6.03;;
71655;SDS011;59497;48.798;8.816;2023-02-15T11:24:28;9.68;;;5.80;;
71655;SDS011;59497;48.798;8.816;2023-02-15T11:26:56;11.43;;;6.97;;
71655;SDS011;59497;48.798;8.816;2023-02-15T11:29:27;11.95;;;6.32;;
71655;SDS011;59497;48.798;8.816;2023-02-15T11:31:54;10.90;;;6.63;;
71655;SDS011;59497;48.798;8.816;2023-02-15T11:34:21;10.10;;;6.40;;
71655;SDS011;59497;48.798;8.816;2023-02-15T11:36:48;8.95;;;6.07;;
71655;SDS011;59497;48.798;8.816;2023-02-15T11:39:16;10.18;;;6.18;;
71655;SDS011;59497;48.798;8.816;2023-02-15T11:41:44;8.90;;;5.68;;
71655;SDS011;59497;48.798;8.816;2023-02-15T11:44:16;9.77;;;5.70;;
71655;SDS011;59497;48.798;8.816;2023-02-15T11:46:43;7.83;;;5.33;;
71655;SDS011;59497;48.798;8.816;2023-02-15T11:51:52;8.10;;;4.38;;
71655;SDS011;59497;48.798;8.816;2023-02-15T11:54:19;8.48;;;4.45;;
71655;SDS011;59497;48.798;8.816;2023-02-15T11:56:46;9.52;;;5.10;;
71655;SDS011;59497;48.798;8.816;2023-02-15T11:59:13;8.57;;;4.60;;
71655;SDS011;59497;48.798;8.816;2023-02-15T12:01:40;7.28;;;4.45;;
71655;SDS011;59497;48.798;8.816;2023-02-15T12:04:15;6.93;;;3.92;;
71655;SDS011;59497;48.798;8.816;2023-02-15T12:06:51;7.60;;;4.03;;
71655;SDS011;59497;48.798;8.816;2023-02-15T12:09:32;6.07;;;3.90;;
71655;SDS011;59497;48.798;8.816;2023-02-15T12:15:01;6.88;;;4.20;;
71655;SDS011;59497;48.798;8.816;2023-02-15T12:17:31;9.43;;;5.13;;
71655;SDS011;59497;48.798;8.816;2023-02-15T12:20:00;8.90;;;6.03;;
71655;SDS011;59497;48.798;8.816;2023-02-15T12:24:52;12.43;;;7.45;;
71655;SDS011;59497;48.798;8.816;2023-02-15T12:27:19;10.65;;;5.90;;
71655;SDS011;59497;48.798;8.816;2023-02-15T12:29:50;10.70;;;5.80;;
71655;SDS011;59497;48.798;8.816;2023-02-15T12:32:22;11.37;;;6.50;;
71655;SDS011;59497;48.798;8.816;2023-02-15T12:34:47;12.52;;;7.28;;
71655;SDS011;59497;48.798;8.816;2023-02-15T12:37:21;10.80;;;7.13;;
71655;SDS011;59497;48.798;8.816;2023-02-15T12:39:51;9.48;;;7.00;;
71655;SDS011;59497;48.798;8.816;2023-02-15T12:42:17;11.45;;;6.90;;
71655;SDS011;59497;48.798;8.816;2023-02-15T12:47:35;11.68;;;7.38;;
71655;SDS011;59497;48.798;8.816;2023-02-15T12:50:22;13.50;;;7.65;;
71655;SDS011;59497;48.798;8.816;2023-02-15T12:52:48;11.87;;;6.87;;
71655;SDS011;59497;48.798;8.816;2023-02-15T12:55:26;10.90;;;7.20;;
71655;SDS011;59497;48.798;8.816;2023-02-15T12:58:07;9.82;;;5.93;;
71655;SDS011;59497;48.798;8.816;2023-02-15T13:00:33;9.82;;;5.50;;
71655;SDS011;59497;48.798;8.816;2023-02-15T13:02:59;11.98;;;6.75;;
71655;SDS011;59497;48.798;8.816;2023-02-15T13:07:52;8.60;;;5.90;;
71655;SDS011;59497;48.798;8.816;2023-02-15T13:10:22;9.68;;;6.40;;
71655;SDS011;59497;48.798;8.816;2023-02-15T13:12:49;9.43;;;5.87;;
71655;SDS011;59497;48.798;8.816;2023-02-15T13:15:26;8.82;;;5.35;;
71655;SDS011;59497;48.798;8.816;2023-02-15T13:17:52;7.47;;;4.60;;
71655;SDS011;59497;48.798;8.816;2023-02-15T13:20:18;7.23;;;3.80;;
71655;SDS011;59497;48.798;8.816;2023-02-15T13:22:46;8.85;;;4.47;;
71655;SDS011;59497;48.798;8.816;2023-02-15T13:25:19;7.43;;;3.78;;
71655;SDS011;59497;48.798;8.816;2023-02-15T13:27:46;7.40;;;4.70;;
71655;SDS011;59497;48.798;8.816;2023-02-15T13:30:16;10.55;;;5.80;;
71655;SDS011;59497;48.798;8.816;2023-02-15T13:32:43;11.68;;;6.40;;
71655;SDS011;59497;48.798;8.816;2023-02-15T13:35:13;11.55;;;5.97;;
71655;SDS011;59497;48.798;8.816;2023-02-15T13:40:23;9.50;;;5.90;;
71655;SDS011;59497;48.798;8.816;2023-02-15T13:43:01;11.60;;;6.30;;
71655;SDS011;59497;48.798;8.816;2023-02-15T13:48:19;8.95;;;5.63;;
71655;SDS011;59497;48.798;8.816;2023-02-15T13:51:00;11.88;;;7.00;;
71655;SDS011;59497;48.798;8.816;2023-02-15T13:53:48;10.67;;;6.60;;
71655;SDS011;59497;48.798;8.816;2023-02-15T13:56:19;11.50;;;7.05;;
71655;SDS011;59497;48.798;8.816;2023-02-15T14:04:14;9.13;;;6.65;;
71655;SDS011;59497;48.798;8.816;2023-02-15T14:07:03;12.20;;;6.50;;
71655;SDS011;59497;48.798;8.816;2023-02-15T14:10:18;11.73;;;6.28;;
71655;SDS011;59497;48.798;8.816;2023-02-15T14:12:24;11.20;;;6.13;;
71655;SDS011;59497;48.798;8.816;2023-02-15T14:14:58;11.80;;;6.32;;
71655;SDS011;59497;48.798;8.816;2023-02-15T14:17:31;11.30;;;6.28;;
71655;SDS011;59497;48.798;8.816;2023-02-15T14:20:07;10.47;;;5.80;;
71655;SDS011;59497;48.798;8.816;2023-02-15T14:22:41;11.02;;;5.35;;
71655;SDS011;59497;48.798;8.816;2023-02-15T14:27:51;9.98;;;5.88;;
71655;SDS011;59497;48.798;8.816;2023-02-15T14:30:20;9.88;;;5.68;;
71655;SDS011;59497;48.798;8.816;2023-02-15T14:32:48;9.63;;;5.47;;
71655;SDS011;59497;48.798;8.816;2023-02-15T14:35:15;9.18;;;5.60;;
71655;SDS011;59497;48.798;8.816;2023-02-15T14:40:08;10.17;;;6.10;;
71655;SDS011;59497;48.798;8.816;2023-02-15T14:43:05;10.98;;;6.25;;
71655;SDS011;59497;48.798;8.816;2023-02-15T14:50:41;10.90;;;6.30;;
71655;SDS011;59497;48.798;8.816;2023-02-15T14:53:32;10.73;;;6.22;;
71655;SDS011;59497;48.798;8.816;2023-02-15T14:56:04;12.63;;;6.57;;
71655;SDS011;59497;48.798;8.816;2023-02-15T14:58:30;14.00;;;7.57;;
71655;SDS011;59497;48.798;8.816;2023-02-15T15:00:55;11.77;;;7.03;;
71655;SDS011;59497;48.798;8.816;2023-02-15T15:03:30;11.70;;;6.27;;
71655;SDS011;59497;48.798;8.816;2023-02-15T15:05:55;11.10;;;6.10;;
71655;SDS011;59497;48.798;8.816;2023-02-15T15:08:22;11.45;;;6.07;;
71655;SDS011;59497;48.798;8.816;2023-02-15T15:10:49;10.77;;;6.32;;
71655;SDS011;59497;48.798;8.816;2023-02-15T15:15:55;11.05;;;6.40;;
71655;SDS011;59497;48.798;8.816;2023-02-15T15:21:04;10.35;;;6.18;;
71655;SDS011;59497;48.798;8.816;2023-02-15T15:23:36;12.20;;;7.10;;
71655;SDS011;59497;48.798;8.816;2023-02-15T15:26:23;13.23;;;6.63;;
71655;SDS011;59497;48.798;8.816;2023-02-15T15:39:14;10.20;;;5.55;;
71655;SDS011;59497;48.798;8.816;2023-02-15T15:49:31;10.18;;;6.07;;
71655;SDS011;59497;48.798;8.816;2023-02-15T15:51:59;13.82;;;6.78;;
71655;SDS011;59497;48.798;8.816;2023-02-15T15:54:25;11.32;;;6.15;;
71655;SDS011;59497;48.798;8.816;2023-02-15T15:56:51;12.30;;;6.17;;
71655;SDS011;59497;48.798;8.816;2023-02-15T15:59:39;11.35;;;6.78;;
71655;SDS011;59497;48.798;8.816;2023-02-15T16:02:04;10.85;;;6.30;;
71655;SDS011;59497;48.798;8.816;2023-02-15T16:04:30;12.27;;;6.65;;
71655;SDS011;59497;48.798;8.816;2023-02-15T16:06:56;12.40;;;6.43;;
71655;SDS011;59497;48.798;8.816;2023-02-15T16:09:23;13.25;;;6.90;;
71655;SDS011;59497;48.798;8.816;2023-02-15T16:11:50;50.17;;;21.90;;
71655;SDS011;59497;48.798;8.816;2023-02-15T16:14:17;40.15;;;21.38;;
71655;SDS011;59497;48.798;8.816;2023-02-15T16:16:49;37.92;;;19.85;;
71655;SDS011;59497;48.798;8.816;2023-02-15T16:19:17;50.10;;;25.43;;
71655;SDS011;59497;48.798;8.816;2023-02-15T16:21:43;28.98;;;15.40;;
71655;SDS011;59497;48.798;8.816;2023-02-15T16:29:36;17.58;;;8.43;;
71655;SDS011;59497;48.798;8.816;2023-02-15T16:32:02;16.17;;;7.70;;
71655;SDS011;59497;48.798;8.816;2023-02-15T16:34:28;11.57;;;6.25;;
71655;SDS011;59497;48.798;8.816;2023-02-15T16:37:19;12.27;;;5.90;;
71655;SDS011;59497;48.798;8.816;2023-02-15T16:39:46;10.75;;;5.70;;
71655;SDS011;59497;48.798;8.816;2023-02-15T16:42:13;13.48;;;6.50;;
71655;SDS011;59497;48.798;8.816;2023-02-15T16:44:39;13.25;;;6.07;;
71655;SDS011;59497;48.798;8.816;2023-02-15T16:47:05;8.67;;;5.43;;
71655;SDS011;59497;48.798;8.816;2023-02-15T16:49:34;10.27;;;5.70;;
71655;SDS011;59497;48.798;8.816;2023-02-15T16:52:00;12.13;;;6.23;;
71655;SDS011;59497;48.798;8.816;2023-02-15T16:54:26;11.20;;;5.75;;
71655;SDS011;59497;48.798;8.816;2023-02-15T16:56:52;14.05;;;6.30;;
71655;SDS011;59497;48.798;8.816;2023-02-15T16:59:31;15.67;;;7.40;;
71655;SDS011;59497;48.798;8.816;2023-02-15T17:01:58;13.52;;;6.55;;
71655;SDS011;59497;48.798;8.816;2023-02-15T17:04:26;10.50;;;6.23;;
71655;SDS011;59497;48.798;8.816;2023-02-15T17:07:03;10.20;;;5.60;;
71655;SDS011;59497;48.798;8.816;2023-02-15T17:09:29;11.52;;;6.00;;
71655;SDS011;59497;48.798;8.816;2023-02-15T17:11:54;11.57;;;5.83;;
71655;SDS011;59497;48.798;8.816;2023-02-15T17:14:20;13.00;;;6.18;;
71655;SDS011;59497;48.798;8.816;2023-02-15T17:16:50;14.80;;;7.00;;
71655;SDS011;59497;48.798;8.816;2023-02-15T17:19:19;10.93;;;6.88;;
71655;SDS011;59497;48.798;8.816;2023-02-15T17:22:06;12.73;;;6.45;;